createdAt,value
2023-09-02T00:01:59.754Z,100784.56
2023-09-02T00:04:28.994Z,100793.72
2023-09-02T00:06:56.404Z,100787.91
2023-09-02T00:09:22.974Z,100772.22
2023-09-02T00:11:49.752Z,100779.47
2023-09-02T00:14:16.321Z,100771.59
2023-09-02T00:16:43.269Z,100788.91
2023-09-02T00:19:10.038Z,100781.06
2023-09-02T00:21:36.722Z,100785.91
2023-09-02T00:24:04.543Z,100785.13
2023-09-02T00:26:32.287Z,100785.19
2023-09-02T00:29:00.522Z,100800.94
2023-09-02T00:31:27.524Z,100797.97
2023-09-02T00:33:54.281Z,100799.09
2023-09-02T00:36:21.201Z,100793.34
2023-09-02T00:38:49.284Z,100784.53
2023-09-02T00:41:44.249Z,100782.13
2023-09-02T00:44:11.113Z,100770.06
2023-09-02T00:46:37.730Z,100778.56
2023-09-02T00:49:04.521Z,100781.66
2023-09-02T00:51:31.133Z,100788.78
2023-09-02T00:53:58.115Z,100785.88
2023-09-02T00:56:25.759Z,100788.09
2023-09-02T00:58:57.102Z,100787.94
2023-09-02T01:01:25.124Z,100798.16
2023-09-02T01:03:51.805Z,100801.81
2023-09-02T01:06:19.368Z,100794.56
2023-09-02T01:08:46.146Z,100798.44
2023-09-02T01:11:13.004Z,100799.13
2023-09-02T01:13:39.890Z,100800.59
2023-09-02T01:16:06.957Z,100793.72
2023-09-02T01:18:34.632Z,100792.00
2023-09-02T01:21:35.936Z,100804.28
2023-09-02T01:24:14.737Z,100805.38
2023-09-02T01:27:06.394Z,100805.09
2023-09-02T01:29:37.411Z,100803.75
2023-09-02T01:32:08.168Z,100801.00
2023-09-02T01:34:37.406Z,100803.59
2023-09-02T01:37:09.032Z,100804.47
2023-09-02T01:44:29.880Z,100790.22
2023-09-02T01:46:57.007Z,100787.59
2023-09-02T01:49:24.175Z,100797.47
2023-09-02T01:51:52.694Z,100804.13
2023-09-02T01:54:19.700Z,100797.22
2023-09-02T01:56:47.533Z,100796.38
2023-09-02T01:59:14.095Z,100795.84
2023-09-02T02:01:41.320Z,100794.19
2023-09-02T02:04:15.824Z,100805.69
2023-09-02T02:06:44.572Z,100799.44
2023-09-02T02:09:14.337Z,100799.88
2023-09-02T02:11:42.705Z,100798.94
2023-09-02T02:14:09.526Z,100789.69
2023-09-02T02:16:36.377Z,100785.72
2023-09-02T02:19:03.805Z,100786.56
2023-09-02T02:21:31.967Z,100794.50
2023-09-02T02:23:58.620Z,100793.28
2023-09-02T02:26:25.768Z,100799.75
2023-09-02T02:28:52.349Z,100787.09
2023-09-02T02:31:19.004Z,100793.38
2023-09-02T02:33:45.691Z,100793.03
2023-09-02T02:36:12.553Z,100794.50
2023-09-02T02:38:39.083Z,100792.78
2023-09-02T02:41:05.958Z,100789.41
2023-09-02T02:43:32.492Z,100793.00
2023-09-02T02:45:59.441Z,100790.75
2023-09-02T02:48:29.351Z,100796.59
2023-09-02T02:50:55.998Z,100798.81
2023-09-02T02:53:23.277Z,100794.97
2023-09-02T02:55:50.649Z,100799.97
2023-09-02T02:58:17.842Z,100797.31
2023-09-02T03:00:45.646Z,100800.22
2023-09-02T03:03:12.423Z,100804.34
2023-09-02T03:05:40.695Z,100804.53
2023-09-02T03:08:09.939Z,100807.50
2023-09-02T03:10:37.561Z,100805.59
2023-09-02T03:13:05.538Z,100811.97
2023-09-02T03:15:33.353Z,100805.41
2023-09-02T03:18:00.910Z,100807.53
2023-09-02T03:20:29.709Z,100802.94
2023-09-02T03:22:56.753Z,100805.91
2023-09-02T03:25:24.950Z,100802.13
2023-09-02T03:27:52.603Z,100802.59
2023-09-02T03:30:21.378Z,100801.63
2023-09-02T03:32:48.737Z,100807.94
2023-09-02T03:35:15.402Z,100810.44
2023-09-02T03:37:44.107Z,100804.78
2023-09-02T03:40:10.897Z,100792.44
2023-09-02T03:42:37.686Z,100803.97
2023-09-02T03:45:04.786Z,100795.66
2023-09-02T03:47:32.511Z,100790.63
2023-09-02T03:50:02.889Z,100795.63
2023-09-02T03:52:30.098Z,100792.06
2023-09-02T03:54:57.944Z,100798.13
2023-09-02T03:57:25.368Z,100802.88
2023-09-02T03:59:52.030Z,100805.72
2023-09-02T04:02:19.052Z,100806.91
2023-09-02T04:04:45.956Z,100807.25
2023-09-02T04:07:12.713Z,100822.13
2023-09-02T04:09:39.772Z,100813.66
2023-09-02T04:12:07.147Z,100826.19
2023-09-02T04:14:33.751Z,100822.75
2023-09-02T04:17:01.561Z,100834.38
2023-09-02T04:19:28.272Z,100832.81
2023-09-02T04:21:55.089Z,100821.88
2023-09-02T04:24:21.636Z,100823.66
2023-09-02T04:26:49.107Z,100829.75
2023-09-02T04:29:15.647Z,100824.59
2023-09-02T04:31:42.556Z,100828.81
2023-09-02T04:34:09.104Z,100833.94
2023-09-02T04:36:35.963Z,100834.47
2023-09-02T04:39:05.967Z,100834.28
2023-09-02T04:41:32.964Z,100831.16
2023-09-02T04:43:59.545Z,100838.97
2023-09-02T04:46:26.674Z,100835.28
2023-09-02T04:48:54.250Z,100848.97
2023-09-02T04:51:21.442Z,100844.44
2023-09-02T04:53:49.457Z,100855.75
2023-09-02T04:56:16.397Z,100853.22
2023-09-02T04:58:42.961Z,100863.03
2023-09-02T05:01:15.110Z,100859.25
2023-09-02T05:03:45.375Z,100861.06
2023-09-02T05:06:13.835Z,100872.00
2023-09-02T05:08:42.585Z,100867.06
2023-09-02T05:11:10.130Z,100870.06
2023-09-02T05:13:37.624Z,100874.03
2023-09-02T05:16:04.483Z,100877.44
2023-09-02T05:18:31.386Z,100876.91
2023-09-02T05:20:58.061Z,100870.88
2023-09-02T05:23:25.010Z,100882.25
2023-09-02T05:25:55.215Z,100876.84
2023-09-02T05:28:23.265Z,100885.91
2023-09-02T05:30:52.527Z,100880.00
2023-09-02T05:33:19.427Z,100872.38
2023-09-02T05:35:46.751Z,100881.97
2023-09-02T05:38:13.345Z,100880.22
2023-09-02T05:40:43.596Z,100876.28
2023-09-02T05:43:10.924Z,100881.34
2023-09-02T05:45:37.719Z,100880.81
2023-09-02T05:48:05.316Z,100885.91
2023-09-02T05:50:32.476Z,100889.22
2023-09-02T05:53:00.025Z,100895.50
2023-09-02T05:55:26.642Z,100903.97
2023-09-02T05:57:53.169Z,100900.44
2023-09-02T06:00:19.774Z,100899.78
2023-09-02T06:02:46.461Z,100904.97
2023-09-02T06:05:13.118Z,100906.06
2023-09-02T06:07:39.745Z,100911.78
2023-09-02T06:10:06.550Z,100918.16
2023-09-02T06:12:33.311Z,100919.16
2023-09-02T06:14:59.948Z,100922.34
2023-09-02T06:17:31.844Z,100916.94
2023-09-02T06:19:59.834Z,100915.28
2023-09-02T06:22:26.397Z,100929.53
2023-09-02T06:24:55.230Z,100929.63
2023-09-02T06:27:21.918Z,100926.56
2023-09-02T06:29:48.837Z,100924.13
2023-09-02T06:32:15.476Z,100927.69
2023-09-02T06:34:42.552Z,100927.63
2023-09-02T06:37:09.091Z,100930.91
2023-09-02T06:39:35.952Z,100932.44
2023-09-02T06:42:02.564Z,100938.56
2023-09-02T06:44:33.273Z,100937.84
2023-09-02T06:46:59.879Z,100944.91
2023-09-02T06:49:26.671Z,100953.31
2023-09-02T06:51:53.316Z,100955.75
2023-09-02T06:54:20.266Z,100958.28
2023-09-02T06:56:46.861Z,100958.84
2023-09-02T06:59:14.213Z,100964.50
2023-09-02T07:01:40.993Z,100966.34
2023-09-02T07:04:07.960Z,100972.91
2023-09-02T07:06:34.559Z,100970.75
2023-09-02T07:09:02.350Z,100978.06
2023-09-02T07:11:28.973Z,100974.16
2023-09-02T07:13:57.995Z,100980.72
2023-09-02T07:16:24.744Z,100975.50
2023-09-02T07:18:51.460Z,100987.91
2023-09-02T07:21:23.389Z,100985.78
2023-09-02T07:23:51.479Z,100986.59
2023-09-02T07:26:18.459Z,100990.88
2023-09-02T07:28:45.242Z,100995.91
2023-09-02T07:31:11.865Z,101005.94
2023-09-02T07:33:39.096Z,101011.69
2023-09-02T07:36:11.136Z,101026.19
2023-09-02T07:38:40.903Z,101023.28
2023-09-02T07:41:08.515Z,101021.22
2023-09-02T07:43:35.487Z,101025.03
2023-09-02T07:46:02.269Z,101025.13
2023-09-02T07:48:29.253Z,101029.88
2023-09-02T07:50:55.904Z,101048.47
2023-09-02T07:53:22.472Z,101053.66
2023-09-02T07:55:49.027Z,101050.84
2023-09-02T07:58:15.674Z,101056.06
2023-09-02T08:00:42.382Z,101052.91
2023-09-02T08:03:09.265Z,101060.25
2023-09-02T08:05:42.694Z,101059.19
2023-09-02T08:08:09.341Z,101064.59
2023-09-02T08:10:38.528Z,101068.38
2023-09-02T08:13:07.217Z,101068.13
2023-09-02T08:15:33.997Z,101083.28
2023-09-02T08:18:00.685Z,101078.75
2023-09-02T08:20:27.436Z,101079.97
2023-09-02T08:22:54.379Z,101084.41
2023-09-02T08:25:20.983Z,101089.88
2023-09-02T08:27:47.806Z,101091.00
2023-09-02T08:30:15.746Z,101094.75
2023-09-02T08:32:43.212Z,101097.38
2023-09-02T08:35:13.149Z,101090.34
2023-09-02T08:37:40.302Z,101099.47
2023-09-02T08:40:07.694Z,101088.13
2023-09-02T08:42:37.362Z,101093.53
2023-09-02T08:45:12.838Z,101102.03
2023-09-02T08:47:41.099Z,101104.03
2023-09-02T08:50:09.442Z,101101.28
2023-09-02T08:52:37.247Z,101101.28
2023-09-02T08:55:04.909Z,101086.50
2023-09-02T08:57:31.714Z,101082.81
2023-09-02T09:00:00.220Z,101081.84
2023-09-02T09:02:28.388Z,101083.56
2023-09-02T09:04:55.690Z,101081.88
2023-09-02T09:07:23.726Z,101094.97
2023-09-02T09:09:53.681Z,101101.97
2023-09-02T09:12:22.649Z,101101.34
2023-09-02T09:14:54.594Z,101105.97
2023-09-02T09:17:21.251Z,101094.13
2023-09-02T09:19:48.352Z,101093.16
2023-09-02T09:22:14.881Z,101103.31
2023-09-02T09:24:41.396Z,101100.34
2023-09-02T09:27:08.248Z,101109.25
2023-09-02T09:29:42.560Z,101105.25
2023-09-02T09:32:10.813Z,101114.84
2023-09-02T09:34:43.002Z,101113.91
2023-09-02T09:37:10.819Z,101115.34
2023-09-02T09:39:48.511Z,101112.56
2023-09-02T09:42:17.059Z,101117.34
2023-09-02T09:44:58.308Z,101108.13
2023-09-02T09:47:27.475Z,101108.41
2023-09-02T09:49:54.318Z,101110.84
2023-09-02T09:52:22.652Z,101108.13
2023-09-02T09:54:52.241Z,101124.53
2023-09-02T09:57:31.690Z,101130.34
2023-09-02T09:59:59.151Z,101114.97
2023-09-02T10:02:26.059Z,101128.63
2023-09-02T10:04:58.334Z,101132.19
2023-09-02T10:07:27.623Z,101137.19
2023-09-02T10:10:00.189Z,101142.75
2023-09-02T10:12:26.923Z,101141.41
2023-09-02T10:14:53.481Z,101140.56
2023-09-02T10:17:21.276Z,101136.38
2023-09-02T10:19:48.397Z,101138.69
2023-09-02T10:22:20.039Z,101133.63
2023-09-02T10:24:56.269Z,101137.00
2023-09-02T10:27:24.563Z,101143.50
2023-09-02T10:30:17.191Z,101154.00
2023-09-02T10:32:52.501Z,101159.50
2023-09-02T10:35:23.352Z,101158.66
2023-09-02T10:37:57.621Z,101162.63
2023-09-02T10:40:26.090Z,101170.38
2023-09-02T10:42:54.448Z,101164.72
2023-09-02T10:45:21.969Z,101155.22
2023-09-02T10:47:50.752Z,101160.50
2023-09-02T10:50:21.077Z,101159.59
2023-09-02T10:53:00.685Z,101170.13
2023-09-02T10:56:04.211Z,101172.84
2023-09-02T10:59:01.303Z,101170.56
2023-09-02T11:01:43.747Z,101169.78
2023-09-02T11:04:10.321Z,101170.56
2023-09-02T11:06:37.509Z,101167.59
2023-09-02T11:09:04.301Z,101169.78
2023-09-02T11:12:08.893Z,101171.47
2023-09-02T11:14:35.514Z,101168.22
2023-09-02T11:17:31.132Z,101186.97
2023-09-02T11:19:59.074Z,101176.91
2023-09-02T11:22:58.208Z,101171.59
2023-09-02T11:25:29.974Z,101180.25
2023-09-02T11:28:04.976Z,101166.09
2023-09-02T11:30:33.542Z,101171.06
2023-09-02T11:33:00.830Z,101174.13
2023-09-02T11:35:35.723Z,101170.94
2023-09-02T11:38:04.535Z,101167.34
2023-09-02T11:40:31.367Z,101178.59
2023-09-02T11:43:02.789Z,101173.28
2023-09-02T11:45:32.392Z,101182.19
2023-09-02T11:47:59.687Z,101186.72
2023-09-02T11:50:26.677Z,101187.22
2023-09-02T11:52:55.162Z,101184.91
2023-09-02T11:55:22.455Z,101187.91
2023-09-02T11:57:50.254Z,101183.81
2023-09-02T12:00:24.387Z,101180.78
2023-09-02T12:02:54.301Z,101184.19
2023-09-02T12:05:20.886Z,101188.13
2023-09-02T12:07:48.645Z,101183.47
2023-09-02T12:10:16.792Z,101186.44
2023-09-02T12:12:49.794Z,101192.66
2023-09-02T12:15:18.517Z,101196.38
2023-09-02T12:17:46.869Z,101189.16
2023-09-02T12:20:15.600Z,101194.53
2023-09-02T12:22:44.014Z,101194.06
2023-09-02T12:25:10.875Z,101198.22
2023-09-02T12:27:40.382Z,101199.38
2023-09-02T12:30:09.683Z,101201.25
2023-09-02T12:32:36.357Z,101203.38
2023-09-02T12:35:10.450Z,101203.25
2023-09-02T12:37:37.574Z,101203.63
2023-09-02T12:40:15.375Z,101206.53
2023-09-02T12:42:43.404Z,101214.56
2023-09-02T12:45:10.552Z,101214.09
2023-09-02T12:47:39.576Z,101221.72
2023-09-02T12:50:07.363Z,101222.66
2023-09-02T12:52:34.603Z,101223.13
2023-09-02T12:55:06.319Z,101218.38
2023-09-02T12:57:34.603Z,101227.28
2023-09-02T13:00:03.078Z,101223.31
2023-09-02T13:02:31.286Z,101230.34
2023-09-02T13:04:58.845Z,101228.63
2023-09-02T13:07:25.802Z,101227.97
2023-09-02T13:09:53.548Z,101227.50
2023-09-02T13:12:20.701Z,101234.75
2023-09-02T13:14:48.922Z,101229.78
2023-09-02T13:17:16.976Z,101230.34
2023-09-02T13:19:45.171Z,101249.00
2023-09-02T13:22:12.067Z,101239.31
2023-09-02T13:24:39.353Z,101243.19
2023-09-02T13:27:06.908Z,101238.13
2023-09-02T13:29:33.760Z,101251.25
2023-09-02T13:32:09.746Z,101242.38
2023-09-02T13:34:37.994Z,101244.34
2023-09-02T13:37:17.848Z,101249.84
2023-09-02T13:39:46.282Z,101246.81
2023-09-02T13:42:19.679Z,101253.03
2023-09-02T13:44:46.934Z,101243.91
2023-09-02T13:47:15.498Z,101240.34
2023-09-02T13:49:42.993Z,101240.75
2023-09-02T13:52:12.584Z,101246.00
2023-09-02T13:54:42.498Z,101250.31
2023-09-02T13:57:09.184Z,101253.28
2023-09-02T13:59:35.753Z,101247.38
2023-09-02T14:02:04.343Z,101251.38
2023-09-02T14:04:30.936Z,101237.47
2023-09-02T14:07:01.641Z,101247.44
2023-09-02T14:09:28.263Z,101241.66
2023-09-02T14:11:54.928Z,101233.88
2023-09-02T14:14:22.556Z,101237.03
2023-09-02T14:16:49.968Z,101244.00
2023-09-02T14:19:19.655Z,101242.78
2023-09-02T14:21:46.194Z,101242.19
2023-09-02T14:24:12.720Z,101241.81
2023-09-02T14:26:42.523Z,101230.91
2023-09-02T14:29:09.576Z,101233.38
2023-09-02T14:31:36.176Z,101238.28
2023-09-02T14:34:03.179Z,101237.16
2023-09-02T14:36:29.728Z,101250.56
2023-09-02T14:38:56.670Z,101250.88
2023-09-02T14:41:23.159Z,101251.13
2023-09-02T14:43:51.770Z,101250.56
2023-09-02T14:46:18.413Z,101247.84
2023-09-02T14:48:45.344Z,101248.03
2023-09-02T14:51:12.106Z,101251.22
2023-09-02T14:53:40.659Z,101254.00
2023-09-02T14:56:07.281Z,101255.22
2023-09-02T14:58:34.719Z,101249.34
2023-09-02T15:01:03.420Z,101250.81
2023-09-02T15:03:37.110Z,101241.81
2023-09-02T15:06:03.908Z,101234.00
2023-09-02T15:08:33.306Z,101249.72
2023-09-02T15:11:01.450Z,101249.94
2023-09-02T15:13:29.709Z,101251.53
2023-09-02T15:15:56.916Z,101247.88
2023-09-02T15:18:29.316Z,101242.25
2023-09-02T15:20:57.153Z,101249.00
2023-09-02T15:23:24.081Z,101248.38
2023-09-02T15:25:57.025Z,101249.06
2023-09-02T15:28:23.906Z,101255.31
2023-09-02T15:30:50.576Z,101250.47
2023-09-02T15:33:20.762Z,101244.38
2023-09-02T15:35:48.161Z,101256.28
2023-09-02T15:38:18.539Z,101248.44
2023-09-02T15:40:46.266Z,101249.72
2023-09-02T15:43:12.982Z,101249.69
2023-09-02T15:45:40.496Z,101259.38
2023-09-02T15:48:07.819Z,101260.00
2023-09-02T15:50:35.228Z,101255.13
2023-09-02T15:53:01.866Z,101260.94
2023-09-02T15:55:28.520Z,101256.38
2023-09-02T15:57:57.103Z,101258.69
2023-09-02T16:00:23.908Z,101276.72
2023-09-02T16:02:50.760Z,101269.69
2023-09-02T16:05:17.612Z,101280.25
2023-09-02T16:07:47.967Z,101278.06
2023-09-02T16:10:14.607Z,101281.25
2023-09-02T16:12:41.189Z,101290.31
2023-09-02T16:15:11.897Z,101294.31
2023-09-02T16:17:41.933Z,101286.94
2023-09-02T16:20:12.190Z,101297.34
2023-09-02T16:22:42.517Z,101293.50
2023-09-02T16:25:11.157Z,101285.63
2023-09-02T16:27:38.740Z,101278.81
2023-09-02T16:30:07.423Z,101291.00
2023-09-02T16:32:34.138Z,101293.31
2023-09-02T16:35:02.006Z,101296.50
2023-09-02T16:37:28.846Z,101288.16
2023-09-02T16:39:57.022Z,101298.63
2023-09-02T16:42:29.120Z,101301.94
2023-09-02T16:45:03.601Z,101305.25
2023-09-02T16:47:30.446Z,101304.06
2023-09-02T16:49:57.016Z,101303.25
2023-09-02T16:52:24.823Z,101296.00
2023-09-02T16:54:51.438Z,101295.09
2023-09-02T16:57:18.267Z,101297.19
2023-09-02T16:59:44.804Z,101297.25
2023-09-02T17:02:22.653Z,101295.19
2023-09-02T17:04:49.745Z,101300.56
2023-09-02T17:07:16.503Z,101303.78
2023-09-02T17:09:43.054Z,101303.63
2023-09-02T17:12:09.808Z,101302.81
2023-09-02T17:14:36.400Z,101305.31
2023-09-02T17:17:08.189Z,101303.78
2023-09-02T17:19:35.202Z,101304.81
2023-09-02T17:22:02.813Z,101305.44
2023-09-02T17:24:29.926Z,101300.69
2023-09-02T17:26:59.730Z,101301.59
2023-09-02T17:29:35.459Z,101305.66
2023-09-02T17:32:02.084Z,101314.81
2023-09-02T17:34:28.680Z,101320.41
2023-09-02T17:36:55.258Z,101318.41
2023-09-02T17:39:22.243Z,101319.19
2023-09-02T17:41:49.072Z,101318.59
2023-09-02T17:44:15.730Z,101325.72
2023-09-02T17:46:42.354Z,101329.88
2023-09-02T17:49:08.990Z,101335.16
2023-09-02T17:51:36.377Z,101340.47
2023-09-02T17:54:03.008Z,101344.59
2023-09-02T17:56:29.541Z,101354.28
2023-09-02T17:58:56.073Z,101343.13
2023-09-02T18:01:22.927Z,101352.19
2023-09-02T18:03:49.776Z,101352.91
2023-09-02T18:06:16.378Z,101363.44
2023-09-02T18:08:58.132Z,101366.28
2023-09-02T18:11:25.673Z,101369.22
2023-09-02T18:13:52.244Z,101372.16
2023-09-02T18:16:19.117Z,101377.00
2023-09-02T18:18:45.672Z,101387.72
2023-09-02T18:21:12.811Z,101376.03
2023-09-02T18:23:39.386Z,101375.97
2023-09-02T18:26:06.184Z,101376.72
2023-09-02T18:28:32.917Z,101379.34
2023-09-02T18:30:59.795Z,101385.88
2023-09-02T18:33:26.334Z,101377.44
2023-09-02T18:35:53.748Z,101381.63
2023-09-02T18:38:20.522Z,101398.09
2023-09-02T18:45:00.478Z,101403.28
2023-09-02T18:47:27.094Z,101409.66
2023-09-02T18:49:54.650Z,101412.00
2023-09-02T18:52:21.424Z,101412.69
2023-09-02T18:54:48.372Z,101411.47
2023-09-02T18:57:15.117Z,101422.59
2023-09-02T18:59:41.963Z,101422.41
2023-09-02T19:02:08.565Z,101419.50
2023-09-02T19:04:35.305Z,101407.13
2023-09-02T19:07:02.005Z,101414.56
2023-09-02T19:09:29.649Z,101418.41
2023-09-02T19:11:56.616Z,101422.03
2023-09-02T19:14:23.375Z,101413.81
2023-09-02T19:16:49.960Z,101420.38
2023-09-02T19:19:16.676Z,101418.66
2023-09-02T19:21:43.461Z,101424.09
2023-09-02T19:24:10.659Z,101425.75
2023-09-02T19:26:37.459Z,101429.97
2023-09-02T19:29:04.244Z,101428.72
2023-09-02T19:31:30.839Z,101436.44
2023-09-02T19:33:57.508Z,101435.09
2023-09-02T19:36:28.932Z,101438.31
2023-09-02T19:38:58.663Z,101441.88
2023-09-02T19:41:26.320Z,101442.63
2023-09-02T19:43:53.350Z,101440.97
2023-09-02T19:46:19.894Z,101450.97
2023-09-02T19:48:46.946Z,101434.34
2023-09-02T19:51:16.940Z,101442.44
2023-09-02T19:53:43.697Z,101439.31
2023-09-02T19:56:12.016Z,101441.09
2023-09-02T19:58:44.200Z,101442.63
2023-09-02T20:01:20.184Z,101442.88
2023-09-02T20:03:47.229Z,101445.78
2023-09-02T20:06:14.990Z,101439.53
2023-09-02T20:08:42.665Z,101444.63
2023-09-02T20:11:09.655Z,101442.25
2023-09-02T20:13:36.865Z,101451.41
2023-09-02T20:16:05.113Z,101456.53
2023-09-02T20:18:33.214Z,101456.53
2023-09-02T20:21:00.466Z,101457.53
2023-09-02T20:23:27.430Z,101455.78
2023-09-02T20:25:54.118Z,101470.81
2023-09-02T20:28:21.849Z,101466.84
2023-09-02T20:30:49.794Z,101471.88
2023-09-02T20:33:16.429Z,101465.22
2023-09-02T20:35:43.008Z,101478.78
2023-09-02T20:38:09.588Z,101485.00
2023-09-02T20:40:40.337Z,101481.81
2023-09-02T20:43:10.348Z,101484.03
2023-09-02T20:45:42.209Z,101490.41
2023-09-02T20:48:09.670Z,101479.34
2023-09-02T20:50:40.807Z,101483.06
2023-09-02T20:53:07.898Z,101498.22
2023-09-02T20:55:34.550Z,101495.13
2023-09-02T20:58:05.223Z,101498.19
2023-09-02T21:00:33.291Z,101503.09
2023-09-02T21:03:00.203Z,101503.97
2023-09-02T21:05:27.243Z,101508.00
2023-09-02T21:07:53.794Z,101507.88
2023-09-02T21:10:20.720Z,101508.97
2023-09-02T21:12:47.276Z,101508.44
2023-09-02T21:15:14.310Z,101510.25
2023-09-02T21:17:41.065Z,101515.09
2023-09-02T21:20:08.340Z,101513.97
2023-09-02T21:22:37.859Z,101529.53
2023-09-02T21:25:06.421Z,101519.03
2023-09-02T21:27:34.222Z,101520.53
2023-09-02T21:30:01.795Z,101527.44
2023-09-02T21:32:29.507Z,101529.94
2023-09-02T21:34:57.853Z,101527.47
2023-09-02T21:37:24.477Z,101541.75
2023-09-02T21:39:51.355Z,101545.25
2023-09-02T21:42:20.029Z,101539.56
2023-09-02T21:44:51.417Z,101541.28
2023-09-02T21:47:18.046Z,101533.38
2023-09-02T21:49:52.923Z,101532.25
2023-09-02T21:52:22.706Z,101530.78
2023-09-02T21:54:50.748Z,101539.25
2023-09-02T21:57:17.414Z,101539.13
2023-09-02T21:59:44.542Z,101538.03
2023-09-02T22:02:11.118Z,101541.41
2023-09-02T22:04:38.161Z,101538.56
2023-09-02T22:07:05.028Z,101537.13
2023-09-02T22:09:31.855Z,101534.53
2023-09-02T22:11:58.415Z,101544.38
2023-09-02T22:14:24.990Z,101542.03
2023-09-02T22:16:51.565Z,101543.53
2023-09-02T22:19:18.720Z,101543.25
2023-09-02T22:21:45.575Z,101566.28
2023-09-02T22:24:12.391Z,101564.00
2023-09-02T22:26:38.902Z,101566.28
2023-09-02T22:29:05.620Z,101565.94
2023-09-02T22:31:32.195Z,101580.81
2023-09-02T22:33:59.300Z,101580.31
2023-09-02T22:36:25.983Z,101579.25
2023-09-02T22:38:56.763Z,101577.50
2023-09-02T22:41:24.346Z,101579.78
2023-09-02T22:43:51.197Z,101576.44
2023-09-02T22:46:18.460Z,101580.88
2023-09-02T22:48:45.073Z,101583.16
2023-09-02T22:51:12.204Z,101582.31
2023-09-02T22:53:39.903Z,101583.16
2023-09-02T22:56:15.295Z,101580.91
2023-09-02T22:58:42.792Z,101588.78
2023-09-02T23:01:12.361Z,101583.41
2023-09-02T23:03:39.855Z,101582.06
2023-09-02T23:06:10.095Z,101586.00
2023-09-02T23:08:38.394Z,101586.56
2023-09-02T23:11:05.484Z,101584.84
2023-09-02T23:13:32.206Z,101589.38
2023-09-02T23:16:04.283Z,101580.34
2023-09-02T23:18:31.671Z,101583.50
2023-09-02T23:21:08.744Z,101588.28
2023-09-02T23:23:35.368Z,101592.78
2023-09-02T23:26:02.889Z,101596.19
2023-09-02T23:28:29.798Z,101592.53
2023-09-02T23:31:00.099Z,101595.66
2023-09-02T23:33:27.085Z,101598.13
2023-09-02T23:35:54.329Z,101593.88
2023-09-02T23:38:25.916Z,101590.22
2023-09-02T23:40:53.513Z,101580.91
2023-09-02T23:43:20.950Z,101597.59
2023-09-02T23:45:52.343Z,101599.56
2023-09-02T23:48:20.970Z,101595.03
2023-09-02T23:50:49.617Z,101605.78
2023-09-02T23:53:16.713Z,101601.84
2023-09-02T23:55:44.537Z,101597.34
2023-09-02T23:58:11.360Z,101591.66
